sensor_id;sensor_type;location;lat;lon;timestamp;P1;durP1;ratioP1;P2;durP2;ratioP2
69183;SDS011;56291;53.960;27.550;2022-08-04T02:03:11;5.47;;;3.40;;
69183;SDS011;56291;53.960;27.550;2022-08-04T02:05:38;4.13;;;3.03;;
69183;SDS011;56291;53.960;27.550;2022-08-04T02:11:12;7.32;;;3.40;;
69183;SDS011;56291;53.960;27.550;2022-08-04T02:13:49;5.60;;;3.08;;
69183;SDS011;56291;53.960;27.550;2022-08-04T02:21:47;3.67;;;2.90;;
69183;SDS011;56291;53.960;27.550;2022-08-04T02:24:21;5.60;;;3.10;;
69183;SDS011;56291;53.960;27.550;2022-08-04T02:26:52;7.38;;;3.17;;
69183;SDS011;56291;53.960;27.550;2022-08-04T02:29:33;5.53;;;2.80;;
69183;SDS011;56291;53.960;27.550;2022-08-04T02:32:26;4.45;;;2.90;;
69183;SDS011;56291;53.960;27.550;2022-08-04T02:37:38;3.70;;;2.55;;
69183;SDS011;56291;53.960;27.550;2022-08-04T02:40:18;5.55;;;3.08;;
69183;SDS011;56291;53.960;27.550;2022-08-04T02:45:14;4.45;;;2.85;;
69183;SDS011;56291;53.960;27.550;2022-08-04T02:47:44;3.33;;;2.70;;
69183;SDS011;56291;53.960;27.550;2022-08-04T02:50:13;4.90;;;2.63;;
69183;SDS011;56291;53.960;27.550;2022-08-04T02:52:42;4.00;;;2.97;;
69183;SDS011;56291;53.960;27.550;2022-08-04T02:55:09;5.53;;;2.80;;
69183;SDS011;56291;53.960;27.550;2022-08-04T02:57:37;4.03;;;2.90;;
69183;SDS011;56291;53.960;27.550;2022-08-04T03:00:11;5.20;;;2.92;;
69183;SDS011;56291;53.960;27.550;2022-08-04T03:02:53;3.70;;;2.70;;
69183;SDS011;56291;53.960;27.550;2022-08-04T03:17:26;3.33;;;2.63;;
69183;SDS011;56291;53.960;27.550;2022-08-04T03:20:27;3.55;;;2.83;;
69183;SDS011;56291;53.960;27.550;2022-08-04T03:23:13;3.40;;;2.70;;
69183;SDS011;56291;53.960;27.550;2022-08-04T03:28:39;4.10;;;2.70;;
69183;SDS011;56291;53.960;27.550;2022-08-04T03:46:52;4.47;;;2.85;;
69183;SDS011;56291;53.960;27.550;2022-08-04T04:07:38;3.35;;;2.85;;
69183;SDS011;56291;53.960;27.550;2022-08-04T04:10:43;4.60;;;2.90;;
69183;SDS011;56291;53.960;27.550;2022-08-04T04:30:22;2.67;;;2.20;;
69183;SDS011;56291;53.960;27.550;2022-08-04T04:33:04;5.10;;;2.72;;
69183;SDS011;56291;53.960;27.550;2022-08-04T04:36:02;2.92;;;2.55;;
69183;SDS011;56291;53.960;27.550;2022-08-04T04:41:34;6.35;;;2.50;;
69183;SDS011;56291;53.960;27.550;2022-08-04T04:51:54;2.60;;;2.22;;
69183;SDS011;56291;53.960;27.550;2022-08-04T04:54:37;3.22;;;2.53;;
69183;SDS011;56291;53.960;27.550;2022-08-04T04:57:17;3.83;;;2.10;;
69183;SDS011;56291;53.960;27.550;2022-08-04T05:13:13;4.20;;;2.30;;
69183;SDS011;56291;53.960;27.550;2022-08-04T05:15:45;2.97;;;2.22;;
69183;SDS011;56291;53.960;27.550;2022-08-04T05:18:21;3.35;;;2.08;;
69183;SDS011;56291;53.960;27.550;2022-08-04T05:20:57;4.80;;;2.47;;
69183;SDS011;56291;53.960;27.550;2022-08-04T05:23:53;4.78;;;2.03;;
69183;SDS011;56291;53.960;27.550;2022-08-04T05:26:29;5.05;;;2.33;;
69183;SDS011;56291;53.960;27.550;2022-08-04T05:31:35;3.55;;;2.10;;
69183;SDS011;56291;53.960;27.550;2022-08-04T05:36:48;3.28;;;2.10;;
69183;SDS011;56291;53.960;27.550;2022-08-04T05:39:27;4.00;;;2.13;;
69183;SDS011;56291;53.960;27.550;2022-08-04T05:41:57;3.55;;;2.03;;
69183;SDS011;56291;53.960;27.550;2022-08-04T05:44:25;3.85;;;2.08;;
69183;SDS011;56291;53.960;27.550;2022-08-04T05:46:56;6.75;;;2.22;;
69183;SDS011;56291;53.960;27.550;2022-08-04T05:49:24;2.22;;;1.98;;
69183;SDS011;56291;53.960;27.550;2022-08-04T05:51:53;5.85;;;2.30;;
69183;SDS011;56291;53.960;27.550;2022-08-04T05:56:53;4.43;;;2.10;;
69183;SDS011;56291;53.960;27.550;2022-08-04T05:59:21;2.72;;;1.90;;
69183;SDS011;56291;53.960;27.550;2022-08-04T06:01:53;2.63;;;2.35;;
69183;SDS011;56291;53.960;27.550;2022-08-04T06:04:22;2.92;;;2.33;;
69183;SDS011;56291;53.960;27.550;2022-08-04T06:06:57;2.85;;;1.92;;
69183;SDS011;56291;53.960;27.550;2022-08-04T06:09:23;4.28;;;2.05;;
69183;SDS011;56291;53.960;27.550;2022-08-04T06:11:50;4.50;;;2.00;;
69183;SDS011;56291;53.960;27.550;2022-08-04T06:14:17;4.88;;;2.10;;
69183;SDS011;56291;53.960;27.550;2022-08-04T06:16:47;7.38;;;2.20;;
69183;SDS011;56291;53.960;27.550;2022-08-04T06:19:15;3.25;;;2.13;;
69183;SDS011;56291;53.960;27.550;2022-08-04T06:21:44;7.18;;;2.35;;
69183;SDS011;56291;53.960;27.550;2022-08-04T06:24:14;5.88;;;2.50;;
69183;SDS011;56291;53.960;27.550;2022-08-04T06:26:46;2.88;;;1.90;;
69183;SDS011;56291;53.960;27.550;2022-08-04T06:29:16;3.10;;;1.70;;
69183;SDS011;56291;53.960;27.550;2022-08-04T06:31:58;7.55;;;2.22;;
69183;SDS011;56291;53.960;27.550;2022-08-04T06:34:27;8.52;;;2.40;;
69183;SDS011;56291;53.960;27.550;2022-08-04T06:36:56;25.63;;;4.05;;
69183;SDS011;56291;53.960;27.550;2022-08-04T06:44:22;10.95;;;2.90;;
69183;SDS011;56291;53.960;27.550;2022-08-04T06:46:50;7.18;;;2.50;;
69183;SDS011;56291;53.960;27.550;2022-08-04T06:49:20;4.00;;;2.20;;
69183;SDS011;56291;53.960;27.550;2022-08-04T06:51:48;5.70;;;2.40;;
69183;SDS011;56291;53.960;27.550;2022-08-04T06:56:47;3.70;;;2.17;;
69183;SDS011;56291;53.960;27.550;2022-08-04T06:59:19;3.33;;;2.30;;
69183;SDS011;56291;53.960;27.550;2022-08-04T07:01:47;5.00;;;2.30;;
69183;SDS011;56291;53.960;27.550;2022-08-04T07:04:17;4.80;;;2.00;;
69183;SDS011;56291;53.960;27.550;2022-08-04T07:06:44;5.30;;;2.25;;
69183;SDS011;56291;53.960;27.550;2022-08-04T07:09:11;6.75;;;2.22;;
69183;SDS011;56291;53.960;27.550;2022-08-04T07:11:37;4.88;;;2.22;;
69183;SDS011;56291;53.960;27.550;2022-08-04T07:14:05;6.80;;;2.08;;
69183;SDS011;56291;53.960;27.550;2022-08-04T07:16:34;3.63;;;2.30;;
69183;SDS011;56291;53.960;27.550;2022-08-04T07:19:01;3.47;;;2.10;;
69183;SDS011;56291;53.960;27.550;2022-08-04T07:21:29;7.00;;;2.30;;
69183;SDS011;56291;53.960;27.550;2022-08-04T07:24:00;7.00;;;2.47;;
69183;SDS011;56291;53.960;27.550;2022-08-04T07:29:31;4.43;;;2.17;;
69183;SDS011;56291;53.960;27.550;2022-08-04T07:32:02;7.57;;;2.47;;
69183;SDS011;56291;53.960;27.550;2022-08-04T07:34:38;6.00;;;2.40;;
69183;SDS011;56291;53.960;27.550;2022-08-04T07:37:06;7.68;;;2.20;;
69183;SDS011;56291;53.960;27.550;2022-08-04T07:39:33;15.70;;;2.40;;
69183;SDS011;56291;53.960;27.550;2022-08-04T07:42:09;6.40;;;2.33;;
69183;SDS011;56291;53.960;27.550;2022-08-04T07:44:38;5.95;;;2.00;;
69183;SDS011;56291;53.960;27.550;2022-08-04T07:47:12;2.97;;;1.92;;
69183;SDS011;56291;53.960;27.550;2022-08-04T07:49:42;5.88;;;2.10;;
69183;SDS011;56291;53.960;27.550;2022-08-04T07:52:09;4.97;;;2.22;;
69183;SDS011;56291;53.960;27.550;2022-08-04T07:54:35;7.10;;;2.00;;
69183;SDS011;56291;53.960;27.550;2022-08-04T07:57:05;2.95;;;2.10;;
69183;SDS011;56291;53.960;27.550;2022-08-04T07:59:31;1.90;;;1.77;;
69183;SDS011;56291;53.960;27.550;2022-08-04T08:01:59;6.82;;;2.30;;
69183;SDS011;56291;53.960;27.550;2022-08-04T08:04:34;2.20;;;2.00;;
69183;SDS011;56291;53.960;27.550;2022-08-04T08:07:10;3.75;;;1.98;;
69183;SDS011;56291;53.960;27.550;2022-08-04T08:09:38;2.92;;;2.20;;
69183;SDS011;56291;53.960;27.550;2022-08-04T08:12:11;7.05;;;2.10;;
69183;SDS011;56291;53.960;27.550;2022-08-04T08:14:41;4.32;;;2.17;;
69183;SDS011;56291;53.960;27.550;2022-08-04T08:17:08;3.10;;;1.90;;
69183;SDS011;56291;53.960;27.550;2022-08-04T08:19:35;3.67;;;1.85;;
69183;SDS011;56291;53.960;27.550;2022-08-04T08:22:03;3.33;;;2.28;;
69183;SDS011;56291;53.960;27.550;2022-08-04T08:24:32;4.45;;;2.03;;
69183;SDS011;56291;53.960;27.550;2022-08-04T08:27:00;3.40;;;1.98;;
69183;SDS011;56291;53.960;27.550;2022-08-04T08:29:32;3.35;;;2.00;;
69183;SDS011;56291;53.960;27.550;2022-08-04T08:32:00;2.45;;;2.00;;
69183;SDS011;56291;53.960;27.550;2022-08-04T08:34:28;3.10;;;2.05;;
69183;SDS011;56291;53.960;27.550;2022-08-04T08:48:18;5.03;;;2.38;;
69183;SDS011;56291;53.960;27.550;2022-08-04T08:54:20;3.15;;;2.05;;
69183;SDS011;56291;53.960;27.550;2022-08-04T09:08:04;5.07;;;2.20;;
69183;SDS011;56291;53.960;27.550;2022-08-04T09:10:41;7.03;;;1.90;;
69183;SDS011;56291;53.960;27.550;2022-08-04T09:14:15;7.97;;;2.22;;
69183;SDS011;56291;53.960;27.550;2022-08-04T09:16:35;7.60;;;2.30;;
69183;SDS011;56291;53.960;27.550;2022-08-04T09:19:13;2.88;;;2.10;;
69183;SDS011;56291;53.960;27.550;2022-08-04T09:29:55;5.03;;;2.13;;
69183;SDS011;56291;53.960;27.550;2022-08-04T09:37:57;2.22;;;2.00;;
69183;SDS011;56291;53.960;27.550;2022-08-04T09:40:50;4.30;;;2.20;;
69183;SDS011;56291;53.960;27.550;2022-08-04T09:46:16;5.18;;;2.38;;
69183;SDS011;56291;53.960;27.550;2022-08-04T09:49:06;2.50;;;2.20;;
69183;SDS011;56291;53.960;27.550;2022-08-04T09:54:38;8.43;;;2.20;;
69183;SDS011;56291;53.960;27.550;2022-08-04T09:57:21;2.50;;;2.10;;
69183;SDS011;56291;53.960;27.550;2022-08-04T09:59:57;6.03;;;2.20;;
69183;SDS011;56291;53.960;27.550;2022-08-04T10:02:30;5.20;;;2.15;;
69183;SDS011;56291;53.960;27.550;2022-08-04T10:05:03;2.17;;;1.98;;
69183;SDS011;56291;53.960;27.550;2022-08-04T10:15:40;3.42;;;2.05;;
69183;SDS011;56291;53.960;27.550;2022-08-04T10:18:26;5.72;;;2.15;;
69183;SDS011;56291;53.960;27.550;2022-08-04T10:21:31;7.30;;;2.33;;
69183;SDS011;56291;53.960;27.550;2022-08-04T10:27:21;3.35;;;2.13;;
69183;SDS011;56291;53.960;27.550;2022-08-04T10:30:05;6.22;;;2.40;;
69183;SDS011;56291;53.960;27.550;2022-08-04T10:32:44;8.75;;;2.75;;
69183;SDS011;56291;53.960;27.550;2022-08-04T10:35:20;8.85;;;2.63;;
69183;SDS011;56291;53.960;27.550;2022-08-04T10:38:06;18.30;;;2.45;;
69183;SDS011;56291;53.960;27.550;2022-08-04T10:43:32;8.85;;;2.40;;
69183;SDS011;56291;53.960;27.550;2022-08-04T10:49:01;7.30;;;2.47;;
69183;SDS011;56291;53.960;27.550;2022-08-04T10:54:16;6.18;;;2.67;;
69183;SDS011;56291;53.960;27.550;2022-08-04T10:56:55;6.53;;;2.20;;
69183;SDS011;56291;53.960;27.550;2022-08-04T10:59:27;6.32;;;2.25;;
69183;SDS011;56291;53.960;27.550;2022-08-04T11:04:59;4.03;;;2.17;;
69183;SDS011;56291;53.960;27.550;2022-08-04T11:07:50;6.10;;;2.42;;
69183;SDS011;56291;53.960;27.550;2022-08-04T11:10:23;6.25;;;2.17;;
69183;SDS011;56291;53.960;27.550;2022-08-04T11:12:58;2.33;;;2.13;;
69183;SDS011;56291;53.960;27.550;2022-08-04T11:15:32;4.47;;;2.55;;
69183;SDS011;56291;53.960;27.550;2022-08-04T11:18:22;7.07;;;2.45;;
69183;SDS011;56291;53.960;27.550;2022-08-04T11:21:12;5.03;;;2.30;;
69183;SDS011;56291;53.960;27.550;2022-08-04T11:24:00;9.95;;;2.40;;
69183;SDS011;56291;53.960;27.550;2022-08-04T11:26:34;5.65;;;2.42;;
69183;SDS011;56291;53.960;27.550;2022-08-04T11:32:16;5.93;;;2.60;;
69183;SDS011;56291;53.960;27.550;2022-08-04T11:34:53;7.43;;;2.40;;
69183;SDS011;56291;53.960;27.550;2022-08-04T11:37:35;4.63;;;2.22;;
69183;SDS011;56291;53.960;27.550;2022-08-04T11:40:19;4.88;;;2.30;;
69183;SDS011;56291;53.960;27.550;2022-08-04T11:43:11;5.13;;;2.33;;
69183;SDS011;56291;53.960;27.550;2022-08-04T11:46:00;5.38;;;2.28;;
69183;SDS011;56291;53.960;27.550;2022-08-04T11:48:34;3.90;;;2.10;;
69183;SDS011;56291;53.960;27.550;2022-08-04T11:51:10;8.38;;;2.30;;
69183;SDS011;56291;53.960;27.550;2022-08-04T11:53:39;5.10;;;2.70;;
69183;SDS011;56291;53.960;27.550;2022-08-04T11:56:07;8.20;;;2.40;;
69183;SDS011;56291;53.960;27.550;2022-08-04T11:58:37;3.67;;;2.20;;
69183;SDS011;56291;53.960;27.550;2022-08-04T12:18:39;7.90;;;2.40;;
69183;SDS011;56291;53.960;27.550;2022-08-04T12:21:32;6.00;;;2.20;;
69183;SDS011;56291;53.960;27.550;2022-08-04T12:24:18;4.22;;;2.25;;
69183;SDS011;56291;53.960;27.550;2022-08-04T12:26:57;5.43;;;2.10;;
69183;SDS011;56291;53.960;27.550;2022-08-04T12:29:40;4.78;;;2.25;;
69183;SDS011;56291;53.960;27.550;2022-08-04T12:32:28;3.05;;;2.20;;
69183;SDS011;56291;53.960;27.550;2022-08-04T12:38:18;9.25;;;2.80;;
69183;SDS011;56291;53.960;27.550;2022-08-04T12:40:52;7.88;;;2.58;;
69183;SDS011;56291;53.960;27.550;2022-08-04T12:43:37;6.20;;;2.30;;
69183;SDS011;56291;53.960;27.550;2022-08-04T12:46:07;15.57;;;2.58;;
69183;SDS011;56291;53.960;27.550;2022-08-04T12:48:37;10.25;;;2.47;;
69183;SDS011;56291;53.960;27.550;2022-08-04T12:51:08;3.97;;;2.35;;
69183;SDS011;56291;53.960;27.550;2022-08-04T12:53:37;4.40;;;2.38;;
69183;SDS011;56291;53.960;27.550;2022-08-04T12:56:07;6.00;;;2.40;;
69183;SDS011;56291;53.960;27.550;2022-08-04T12:58:46;9.82;;;2.55;;
69183;SDS011;56291;53.960;27.550;2022-08-04T13:01:22;4.15;;;2.30;;
69183;SDS011;56291;53.960;27.550;2022-08-04T13:03:54;3.72;;;2.28;;
69183;SDS011;56291;53.960;27.550;2022-08-04T13:06:44;2.78;;;2.33;;
69183;SDS011;56291;53.960;27.550;2022-08-04T13:09:25;4.65;;;2.40;;
69183;SDS011;56291;53.960;27.550;2022-08-04T13:11:59;7.40;;;2.55;;
69183;SDS011;56291;53.960;27.550;2022-08-04T13:14:39;4.07;;;2.50;;
69183;SDS011;56291;53.960;27.550;2022-08-04T13:17:10;7.38;;;2.63;;
69183;SDS011;56291;53.960;27.550;2022-08-04T13:19:37;3.63;;;2.17;;
69183;SDS011;56291;53.960;27.550;2022-08-04T13:22:11;3.17;;;2.00;;
69183;SDS011;56291;53.960;27.550;2022-08-04T13:24:40;5.20;;;2.33;;
69183;SDS011;56291;53.960;27.550;2022-08-04T13:27:09;6.53;;;2.53;;
69183;SDS011;56291;53.960;27.550;2022-08-04T13:29:39;8.23;;;2.70;;
69183;SDS011;56291;53.960;27.550;2022-08-04T13:32:08;6.93;;;2.60;;
69183;SDS011;56291;53.960;27.550;2022-08-04T13:34:39;15.40;;;2.80;;
69183;SDS011;56291;53.960;27.550;2022-08-04T13:37:07;8.55;;;2.40;;
69183;SDS011;56291;53.960;27.550;2022-08-04T13:39:35;5.03;;;2.67;;
69183;SDS011;56291;53.960;27.550;2022-08-04T13:42:04;8.00;;;2.60;;
69183;SDS011;56291;53.960;27.550;2022-08-04T13:44:34;5.87;;;2.40;;
69183;SDS011;56291;53.960;27.550;2022-08-04T13:47:06;2.78;;;2.35;;
69183;SDS011;56291;53.960;27.550;2022-08-04T13:49:36;4.57;;;2.40;;
69183;SDS011;56291;53.960;27.550;2022-08-04T13:52:06;8.40;;;2.57;;
69183;SDS011;56291;53.960;27.550;2022-08-04T13:54:37;7.43;;;2.70;;
69183;SDS011;56291;53.960;27.550;2022-08-04T13:57:10;9.27;;;2.85;;
69183;SDS011;56291;53.960;27.550;2022-08-04T13:59:44;13.52;;;3.58;;
69183;SDS011;56291;53.960;27.550;2022-08-04T14:03:00;12.45;;;2.78;;
69183;SDS011;56291;53.960;27.550;2022-08-04T14:05:42;26.13;;;3.28;;
69183;SDS011;56291;53.960;27.550;2022-08-04T14:08:21;8.43;;;2.83;;
69183;SDS011;56291;53.960;27.550;2022-08-04T14:10:52;6.72;;;3.13;;
69183;SDS011;56291;53.960;27.550;2022-08-04T14:13:32;9.63;;;2.70;;
69183;SDS011;56291;53.960;27.550;2022-08-04T14:15:59;6.00;;;2.42;;
69183;SDS011;56291;53.960;27.550;2022-08-04T14:21:00;3.40;;;2.50;;
69183;SDS011;56291;53.960;27.550;2022-08-04T14:29:05;23.15;;;3.47;;
69183;SDS011;56291;53.960;27.550;2022-08-04T14:31:34;9.13;;;3.05;;
69183;SDS011;56291;53.960;27.550;2022-08-04T14:34:01;7.70;;;2.53;;
69183;SDS011;56291;53.960;27.550;2022-08-04T14:36:28;12.23;;;2.70;;
69183;SDS011;56291;53.960;27.550;2022-08-04T14:39:06;16.80;;;3.03;;
69183;SDS011;56291;53.960;27.550;2022-08-04T14:41:46;8.27;;;2.40;;
69183;SDS011;56291;53.960;27.550;2022-08-04T14:44:17;9.80;;;2.75;;
69183;SDS011;56291;53.960;27.550;2022-08-04T14:46:52;8.27;;;2.60;;
69183;SDS011;56291;53.960;27.550;2022-08-04T14:49:20;4.97;;;2.65;;
69183;SDS011;56291;53.960;27.550;2022-08-04T14:51:51;6.20;;;2.45;;
69183;SDS011;56291;53.960;27.550;2022-08-04T14:54:33;8.23;;;2.97;;
69183;SDS011;56291;53.960;27.550;2022-08-04T14:57:02;7.53;;;2.78;;
69183;SDS011;56291;53.960;27.550;2022-08-04T14:59:48;16.02;;;3.28;;
69183;SDS011;56291;53.960;27.550;2022-08-04T15:02:15;35.25;;;4.72;;
69183;SDS011;56291;53.960;27.550;2022-08-04T15:04:42;45.10;;;5.57;;
69183;SDS011;56291;53.960;27.550;2022-08-04T15:07:10;26.30;;;4.50;;
69183;SDS011;56291;53.960;27.550;2022-08-04T15:09:37;16.50;;;3.35;;
69183;SDS011;56291;53.960;27.550;2022-08-04T15:12:05;15.38;;;2.90;;
69183;SDS011;56291;53.960;27.550;2022-08-04T15:14:31;8.98;;;2.50;;
69183;SDS011;56291;53.960;27.550;2022-08-04T15:17:02;10.00;;;2.80;;
69183;SDS011;56291;53.960;27.550;2022-08-04T15:19:30;8.80;;;2.75;;
69183;SDS011;56291;53.960;27.550;2022-08-04T15:22:02;7.80;;;2.70;;
69183;SDS011;56291;53.960;27.550;2022-08-04T15:24:31;4.25;;;2.72;;
69183;SDS011;56291;53.960;27.550;2022-08-04T15:27:00;6.60;;;2.65;;
69183;SDS011;56291;53.960;27.550;2022-08-04T15:31:54;2.85;;;2.55;;
69183;SDS011;56291;53.960;27.550;2022-08-04T15:34:21;10.80;;;2.80;;
69183;SDS011;56291;53.960;27.550;2022-08-04T15:36:52;3.10;;;2.55;;
69183;SDS011;56291;53.960;27.550;2022-08-04T15:47:38;4.38;;;2.55;;
69183;SDS011;56291;53.960;27.550;2022-08-04T15:55:36;4.90;;;2.50;;
69183;SDS011;56291;53.960;27.550;2022-08-04T15:58:10;8.45;;;2.50;;
69183;SDS011;56291;53.960;27.550;2022-08-04T16:06:00;7.35;;;2.70;;
69183;SDS011;56291;53.960;27.550;2022-08-04T16:19:10;13.00;;;2.85;;
69183;SDS011;56291;53.960;27.550;2022-08-04T16:21:58;11.68;;;2.80;;
69183;SDS011;56291;53.960;27.550;2022-08-04T16:24:38;9.85;;;3.05;;
69183;SDS011;56291;53.960;27.550;2022-08-04T16:27:09;7.18;;;2.72;;
69183;SDS011;56291;53.960;27.550;2022-08-04T16:29:40;24.45;;;3.75;;
69183;SDS011;56291;53.960;27.550;2022-08-04T16:32:19;27.15;;;4.28;;
69183;SDS011;56291;53.960;27.550;2022-08-04T16:34:57;34.90;;;4.00;;
69183;SDS011;56291;53.960;27.550;2022-08-04T16:42:58;8.18;;;2.50;;
69183;SDS011;56291;53.960;27.550;2022-08-04T16:45:40;8.65;;;2.67;;
69183;SDS011;56291;53.960;27.550;2022-08-04T16:48:18;24.35;;;3.90;;
69183;SDS011;56291;53.960;27.550;2022-08-04T16:50:50;15.00;;;3.33;;
69183;SDS011;56291;53.960;27.550;2022-08-04T16:53:17;23.15;;;3.47;;
69183;SDS011;56291;53.960;27.550;2022-08-04T16:55:49;11.45;;;2.80;;
69183;SDS011;56291;53.960;27.550;2022-08-04T16:58:23;7.18;;;3.05;;
69183;SDS011;56291;53.960;27.550;2022-08-04T17:00:55;5.20;;;2.75;;
69183;SDS011;56291;53.960;27.550;2022-08-04T17:03:22;5.55;;;2.83;;
69183;SDS011;56291;53.960;27.550;2022-08-04T17:05:49;5.47;;;2.83;;
69183;SDS011;56291;53.960;27.550;2022-08-04T17:08:29;3.42;;;2.55;;
69183;SDS011;56291;53.960;27.550;2022-08-04T17:10:56;5.97;;;2.95;;
69183;SDS011;56291;53.960;27.550;2022-08-04T17:13:27;5.13;;;2.65;;
69183;SDS011;56291;53.960;27.550;2022-08-04T17:15:58;6.28;;;3.47;;
69183;SDS011;56291;53.960;27.550;2022-08-04T17:20:55;8.85;;;3.25;;
69183;SDS011;56291;53.960;27.550;2022-08-04T17:26:21;4.90;;;3.20;;
69183;SDS011;56291;53.960;27.550;2022-08-04T17:28:50;6.63;;;3.35;;
69183;SDS011;56291;53.960;27.550;2022-08-04T17:31:19;5.82;;;3.22;;
69183;SDS011;56291;53.960;27.550;2022-08-04T17:33:49;6.18;;;3.13;;
69183;SDS011;56291;53.960;27.550;2022-08-04T17:36:22;6.00;;;2.70;;
69183;SDS011;56291;53.960;27.550;2022-08-04T17:38:51;7.88;;;3.30;;
69183;SDS011;56291;53.960;27.550;2022-08-04T17:41:20;10.30;;;3.25;;
69183;SDS011;56291;53.960;27.550;2022-08-04T17:46:35;7.82;;;3.13;;
69183;SDS011;56291;53.960;27.550;2022-08-04T17:51:43;5.70;;;3.03;;
69183;SDS011;56291;53.960;27.550;2022-08-04T17:54:12;8.85;;;3.38;;
69183;SDS011;56291;53.960;27.550;2022-08-04T17:56:41;6.35;;;3.10;;
69183;SDS011;56291;53.960;27.550;2022-08-04T17:59:12;7.18;;;3.15;;
69183;SDS011;56291;53.960;27.550;2022-08-04T18:01:51;6.68;;;3.38;;
69183;SDS011;56291;53.960;27.550;2022-08-04T18:04:36;8.77;;;3.33;;
69183;SDS011;56291;53.960;27.550;2022-08-04T18:07:19;8.00;;;3.33;;
69183;SDS011;56291;53.960;27.550;2022-08-04T18:14:52;6.63;;;4.00;;
69183;SDS011;56291;53.960;27.550;2022-08-04T18:17:33;7.38;;;3.67;;
69183;SDS011;56291;53.960;27.550;2022-08-04T18:20:00;6.78;;;3.60;;
69183;SDS011;56291;53.960;27.550;2022-08-04T18:22:31;7.30;;;3.92;;
69183;SDS011;56291;53.960;27.550;2022-08-04T18:24:57;9.13;;;4.38;;
69183;SDS011;56291;53.960;27.550;2022-08-04T18:27:25;9.75;;;4.13;;
69183;SDS011;56291;53.960;27.550;2022-08-04T18:29:53;8.90;;;4.07;;
69183;SDS011;56291;53.960;27.550;2022-08-04T18:32:20;8.23;;;3.80;;
69183;SDS011;56291;53.960;27.550;2022-08-04T18:34:53;8.55;;;4.10;;
69183;SDS011;56291;53.960;27.550;2022-08-04T18:37:19;8.02;;;3.85;;
69183;SDS011;56291;53.960;27.550;2022-08-04T18:39:46;10.82;;;4.07;;
69183;SDS011;56291;53.960;27.550;2022-08-04T18:42:14;8.32;;;4.28;;
69183;SDS011;56291;53.960;27.550;2022-08-04T18:44:40;7.93;;;4.30;;
69183;SDS011;56291;53.960;27.550;2022-08-04T18:47:06;6.47;;;4.15;;
69183;SDS011;56291;53.960;27.550;2022-08-04T18:49:33;9.35;;;4.20;;
69183;SDS011;56291;53.960;27.550;2022-08-04T18:51:59;8.75;;;4.32;;
69183;SDS011;56291;53.960;27.550;2022-08-04T18:54:25;10.95;;;4.20;;
69183;SDS011;56291;53.960;27.550;2022-08-04T18:56:52;8.70;;;4.78;;
69183;SDS011;56291;53.960;27.550;2022-08-04T18:59:19;12.07;;;4.90;;
69183;SDS011;56291;53.960;27.550;2022-08-04T19:01:47;12.13;;;4.30;;
69183;SDS011;56291;53.960;27.550;2022-08-04T19:04:16;10.68;;;4.20;;
69183;SDS011;56291;53.960;27.550;2022-08-04T19:06:43;7.40;;;4.22;;
69183;SDS011;56291;53.960;27.550;2022-08-04T19:09:09;15.35;;;4.43;;
69183;SDS011;56291;53.960;27.550;2022-08-04T19:11:37;11.45;;;4.70;;
69183;SDS011;56291;53.960;27.550;2022-08-04T19:14:04;7.50;;;4.47;;
69183;SDS011;56291;53.960;27.550;2022-08-04T19:16:31;9.75;;;4.72;;
69183;SDS011;56291;53.960;27.550;2022-08-04T19:18:59;10.07;;;4.63;;
69183;SDS011;56291;53.960;27.550;2022-08-04T19:21:28;6.70;;;4.65;;
69183;SDS011;56291;53.960;27.550;2022-08-04T19:23:54;7.35;;;4.50;;
69183;SDS011;56291;53.960;27.550;2022-08-04T19:26:21;10.77;;;4.85;;
69183;SDS011;56291;53.960;27.550;2022-08-04T19:28:53;10.23;;;4.70;;
69183;SDS011;56291;53.960;27.550;2022-08-04T19:31:19;7.57;;;4.35;;
69183;SDS011;56291;53.960;27.550;2022-08-04T19:33:47;5.47;;;4.43;;
69183;SDS011;56291;53.960;27.550;2022-08-04T19:36:13;7.25;;;4.05;;
69183;SDS011;56291;53.960;27.550;2022-08-04T19:38:40;10.45;;;5.07;;
69183;SDS011;56291;53.960;27.550;2022-08-04T19:41:08;6.93;;;4.32;;
69183;SDS011;56291;53.960;27.550;2022-08-04T19:43:34;8.80;;;5.13;;
69183;SDS011;56291;53.960;27.550;2022-08-04T19:46:00;10.07;;;4.63;;
69183;SDS011;56291;53.960;27.550;2022-08-04T19:48:27;5.68;;;4.40;;
69183;SDS011;56291;53.960;27.550;2022-08-04T19:50:53;10.95;;;4.68;;
69183;SDS011;56291;53.960;27.550;2022-08-04T19:53:20;11.30;;;4.50;;
69183;SDS011;56291;53.960;27.550;2022-08-04T19:55:47;8.52;;;4.75;;
69183;SDS011;56291;53.960;27.550;2022-08-04T19:58:13;5.70;;;4.55;;
69183;SDS011;56291;53.960;27.550;2022-08-04T20:00:39;9.30;;;4.70;;
69183;SDS011;56291;53.960;27.550;2022-08-04T20:03:06;6.68;;;4.78;;
69183;SDS011;56291;53.960;27.550;2022-08-04T20:05:34;8.95;;;5.03;;
69183;SDS011;56291;53.960;27.550;2022-08-04T20:08:00;8.05;;;4.75;;
69183;SDS011;56291;53.960;27.550;2022-08-04T20:10:26;7.53;;;5.40;;
69183;SDS011;56291;53.960;27.550;2022-08-04T20:12:53;7.45;;;4.78;;
69183;SDS011;56291;53.960;27.550;2022-08-04T20:15:21;6.30;;;4.82;;
69183;SDS011;56291;53.960;27.550;2022-08-04T20:17:48;6.28;;;4.18;;
69183;SDS011;56291;53.960;27.550;2022-08-04T20:20:17;6.85;;;4.80;;
69183;SDS011;56291;53.960;27.550;2022-08-04T20:22:43;7.95;;;5.00;;
69183;SDS011;56291;53.960;27.550;2022-08-04T20:25:09;9.95;;;4.50;;
69183;SDS011;56291;53.960;27.550;2022-08-04T20:27:36;9.35;;;5.20;;
69183;SDS011;56291;53.960;27.550;2022-08-04T20:30:04;10.50;;;4.95;;
69183;SDS011;56291;53.960;27.550;2022-08-04T20:32:31;7.72;;;4.75;;
69183;SDS011;56291;53.960;27.550;2022-08-04T20:34:57;7.00;;;4.53;;
69183;SDS011;56291;53.960;27.550;2022-08-04T20:37:26;7.38;;;4.72;;
69183;SDS011;56291;53.960;27.550;2022-08-04T20:39:54;9.30;;;5.22;;
69183;SDS011;56291;53.960;27.550;2022-08-04T20:42:22;9.38;;;5.68;;
69183;SDS011;56291;53.960;27.550;2022-08-04T20:44:52;9.75;;;5.28;;
69183;SDS011;56291;53.960;27.550;2022-08-04T20:47:19;13.00;;;5.13;;
69183;SDS011;56291;53.960;27.550;2022-08-04T20:49:45;7.55;;;5.03;;
69183;SDS011;56291;53.960;27.550;2022-08-04T20:52:12;7.35;;;4.65;;
69183;SDS011;56291;53.960;27.550;2022-08-04T20:54:38;7.63;;;5.18;;
69183;SDS011;56291;53.960;27.550;2022-08-04T20:57:05;7.10;;;5.05;;
69183;SDS011;56291;53.960;27.550;2022-08-04T20:59:32;7.47;;;4.88;;
69183;SDS011;56291;53.960;27.550;2022-08-04T21:02:03;6.22;;;4.88;;
69183;SDS011;56291;53.960;27.550;2022-08-04T21:04:30;7.65;;;4.85;;
69183;SDS011;56291;53.960;27.550;2022-08-04T21:07:04;7.95;;;4.90;;
69183;SDS011;56291;53.960;27.550;2022-08-04T21:09:33;8.02;;;5.10;;
69183;SDS011;56291;53.960;27.550;2022-08-04T21:12:10;8.70;;;5.20;;
69183;SDS011;56291;53.960;27.550;2022-08-04T21:14:41;7.20;;;5.07;;
69183;SDS011;56291;53.960;27.550;2022-08-04T21:17:08;8.30;;;5.15;;
69183;SDS011;56291;53.960;27.550;2022-08-04T21:19:35;7.72;;;5.35;;
69183;SDS011;56291;53.960;27.550;2022-08-04T21:22:01;7.10;;;5.05;;
69183;SDS011;56291;53.960;27.550;2022-08-04T21:24:30;6.35;;;5.32;;
69183;SDS011;56291;53.960;27.550;2022-08-04T21:26:58;7.72;;;5.03;;
69183;SDS011;56291;53.960;27.550;2022-08-04T21:29:30;7.00;;;5.28;;
69183;SDS011;56291;53.960;27.550;2022-08-04T21:31:58;7.82;;;5.50;;
69183;SDS011;56291;53.960;27.550;2022-08-04T21:34:25;9.15;;;5.40;;
69183;SDS011;56291;53.960;27.550;2022-08-04T21:36:51;10.73;;;5.57;;
69183;SDS011;56291;53.960;27.550;2022-08-04T21:39:17;8.15;;;5.22;;
69183;SDS011;56291;53.960;27.550;2022-08-04T21:41:44;7.68;;;5.60;;